sensor_id;sensor_type;location;lat;lon;timestamp;pressure;altitude;pressure_sealevel;temperature;humidity
61324;BME280;47203;48.428;11.974;2023-03-20T00:01:21;96941.69;;;13.38;53.71
61324;BME280;47203;48.428;11.974;2023-03-20T00:03:27;96949.63;;;13.38;54.02
61324;BME280;47203;48.428;11.974;2023-03-20T00:05:32;96945.41;;;13.37;53.87
61324;BME280;47203;48.428;11.974;2023-03-20T00:07:38;96944.63;;;13.37;54.18
61324;BME280;47203;48.428;11.974;2023-03-20T00:09:45;96949.13;;;13.36;54.10
61324;BME280;47203;48.428;11.974;2023-03-20T00:11:53;96941.97;;;13.37;54.26
61324;BME280;47203;48.428;11.974;2023-03-20T00:14:00;96946.50;;;13.36;54.05
61324;BME280;47203;48.428;11.974;2023-03-20T00:16:07;96945.97;;;13.34;54.07
61324;BME280;47203;48.428;11.974;2023-03-20T00:18:15;96950.44;;;13.34;54.22
61324;BME280;47203;48.428;11.974;2023-03-20T00:20:23;96948.84;;;13.33;54.48
61324;BME280;47203;48.428;11.974;2023-03-20T00:22:28;96951.50;;;13.33;54.42
61324;BME280;47203;48.428;11.974;2023-03-20T00:24:33;96951.50;;;13.33;54.41
61324;BME280;47203;48.428;11.974;2023-03-20T00:26:42;96962.34;;;13.31;54.54
61324;BME280;47203;48.428;11.974;2023-03-20T00:28:48;96955.47;;;13.30;54.50
61324;BME280;47203;48.428;11.974;2023-03-20T00:30:53;96955.47;;;13.30;54.32
61324;BME280;47203;48.428;11.974;2023-03-20T00:32:58;96946.25;;;13.27;54.25
61324;BME280;47203;48.428;11.974;2023-03-20T00:35:17;96949.97;;;13.26;54.55
61324;BME280;47203;48.428;11.974;2023-03-20T00:37:22;96953.38;;;13.27;54.47
61324;BME280;47203;48.428;11.974;2023-03-20T00:39:31;96953.38;;;13.27;54.69
61324;BME280;47203;48.428;11.974;2023-03-20T00:41:43;96963.16;;;13.26;54.46
61324;BME280;47203;48.428;11.974;2023-03-20T00:43:55;96956.81;;;13.27;54.47
61324;BME280;47203;48.428;11.974;2023-03-20T00:46:02;96954.97;;;13.28;54.45
61324;BME280;47203;48.428;11.974;2023-03-20T00:48:09;96954.69;;;13.30;54.63
61324;BME280;47203;48.428;11.974;2023-03-20T00:50:20;96956.28;;;13.31;54.73
61324;BME280;47203;48.428;11.974;2023-03-20T00:52:25;96960.75;;;13.30;54.60
61324;BME280;47203;48.428;11.974;2023-03-20T00:54:30;96961.56;;;13.31;54.65
61324;BME280;47203;48.428;11.974;2023-03-20T00:56:39;96957.06;;;13.31;54.82
61324;BME280;47203;48.428;11.974;2023-03-20T00:58:49;96959.41;;;13.33;54.58
61324;BME280;47203;48.428;11.974;2023-03-20T01:00:54;96955.72;;;13.34;54.38
61324;BME280;47203;48.428;11.974;2023-03-20T01:03:00;96963.13;;;13.37;54.74
61324;BME280;47203;48.428;11.974;2023-03-20T01:05:07;96960.50;;;13.37;54.56
61324;BME280;47203;48.428;11.974;2023-03-20T01:07:13;96963.13;;;13.37;54.75
61324;BME280;47203;48.428;11.974;2023-03-20T01:09:19;96966.28;;;13.39;54.80
61324;BME280;47203;48.428;11.974;2023-03-20T01:11:24;96960.22;;;13.38;54.38
61324;BME280;47203;48.428;11.974;2023-03-20T01:13:30;96965.50;;;13.38;54.66
61324;BME280;47203;48.428;11.974;2023-03-20T01:15:39;96961.25;;;13.37;54.83
61324;BME280;47203;48.428;11.974;2023-03-20T01:17:44;96967.63;;;13.36;54.41
61324;BME280;47203;48.428;11.974;2023-03-20T01:19:49;96957.59;;;13.33;54.79
61324;BME280;47203;48.428;11.974;2023-03-20T01:21:55;96962.34;;;13.31;54.45
61324;BME280;47203;48.428;11.974;2023-03-20T01:24:00;96959.97;;;13.30;54.63
61324;BME280;47203;48.428;11.974;2023-03-20T01:26:16;96961.31;;;13.27;54.63
61324;BME280;47203;48.428;11.974;2023-03-20T01:28:23;96956.28;;;13.25;54.61
61324;BME280;47203;48.428;11.974;2023-03-20T01:30:30;96969.28;;;13.22;54.54
61324;BME280;47203;48.428;11.974;2023-03-20T01:32:38;96957.69;;;13.18;54.92
61324;BME280;47203;48.428;11.974;2023-03-20T01:34:44;96964.28;;;13.15;54.85
61324;BME280;47203;48.428;11.974;2023-03-20T01:36:52;96956.66;;;13.14;54.62
61324;BME280;47203;48.428;11.974;2023-03-20T01:38:58;96954.06;;;13.08;54.97
61324;BME280;47203;48.428;11.974;2023-03-20T01:41:05;96964.38;;;13.05;54.91
61324;BME280;47203;48.428;11.974;2023-03-20T01:43:15;96962.28;;;13.02;54.85
61324;BME280;47203;48.428;11.974;2023-03-20T01:45:27;96965.47;;;12.99;55.11
61324;BME280;47203;48.428;11.974;2023-03-20T01:47:37;96964.69;;;12.98;54.92
61324;BME280;47203;48.428;11.974;2023-03-20T01:52:46;96967.09;;;12.89;54.74
61324;BME280;47203;48.428;11.974;2023-03-20T01:54:53;96959.47;;;12.88;55.09
61324;BME280;47203;48.428;11.974;2023-03-20T01:57:01;96969.75;;;12.89;54.98
61324;BME280;47203;48.428;11.974;2023-03-20T01:59:11;96959.97;;;12.90;55.00
61324;BME280;47203;48.428;11.974;2023-03-20T02:01:18;96963.38;;;12.90;54.79
61324;BME280;47203;48.428;11.974;2023-03-20T02:03:26;96962.31;;;12.91;54.81
61324;BME280;47203;48.428;11.974;2023-03-20T02:05:54;96965.25;;;12.90;54.90
61324;BME280;47203;48.428;11.974;2023-03-20T02:08:21;96961.00;;;12.89;55.25
61324;BME280;47203;48.428;11.974;2023-03-20T02:10:29;96958.09;;;12.90;55.10
61324;BME280;47203;48.428;11.974;2023-03-20T02:12:44;96960.47;;;12.92;55.17
61324;BME280;47203;48.428;11.974;2023-03-20T02:14:59;96954.41;;;12.91;55.14
61324;BME280;47203;48.428;11.974;2023-03-20T02:17:37;96961.56;;;12.91;54.83
61324;BME280;47203;48.428;11.974;2023-03-20T02:19:54;96961.81;;;12.89;54.94
61324;BME280;47203;48.428;11.974;2023-03-20T02:25:13;96964.97;;;12.86;55.09
61324;BME280;47203;48.428;11.974;2023-03-20T02:27:31;96961.84;;;12.84;55.12
61324;BME280;47203;48.428;11.974;2023-03-20T02:35:35;96954.19;;;12.83;55.24
61324;BME280;47203;48.428;11.974;2023-03-20T02:38:05;96956.31;;;12.81;55.03
61324;BME280;47203;48.428;11.974;2023-03-20T02:40:22;96956.81;;;12.83;55.50
61324;BME280;47203;48.428;11.974;2023-03-20T02:42:35;96953.13;;;12.84;55.46
61324;BME280;47203;48.428;11.974;2023-03-20T02:44:46;96954.69;;;12.85;55.36
61324;BME280;47203;48.428;11.974;2023-03-20T02:47:01;96951.00;;;12.86;55.29
61324;BME280;47203;48.428;11.974;2023-03-20T02:49:13;96957.88;;;12.87;55.36
61324;BME280;47203;48.428;11.974;2023-03-20T02:51:24;96955.72;;;12.89;55.38
61324;BME280;47203;48.428;11.974;2023-03-20T02:53:48;96958.38;;;12.89;55.43
61324;BME280;47203;48.428;11.974;2023-03-20T02:56:02;96958.09;;;12.90;55.36
61324;BME280;47203;48.428;11.974;2023-03-20T02:58:15;96957.03;;;12.91;55.40
61324;BME280;47203;48.428;11.974;2023-03-20T03:00:28;96958.09;;;12.90;55.55
61324;BME280;47203;48.428;11.974;2023-03-20T03:02:37;96967.88;;;12.90;55.44
61324;BME280;47203;48.428;11.974;2023-03-20T03:04:48;96967.09;;;12.89;55.49
61324;BME280;47203;48.428;11.974;2023-03-20T03:06:56;96969.47;;;12.91;55.40
61324;BME280;47203;48.428;11.974;2023-03-20T03:09:06;96967.88;;;12.90;55.29
61324;BME280;47203;48.428;11.974;2023-03-20T03:11:15;96964.97;;;12.91;55.32
61324;BME280;47203;48.428;11.974;2023-03-20T03:13:24;96969.47;;;12.91;55.47
61324;BME280;47203;48.428;11.974;2023-03-20T03:15:33;96972.38;;;12.89;55.59
61324;BME280;47203;48.428;11.974;2023-03-20T03:17:42;96968.94;;;12.89;55.33
61324;BME280;47203;48.428;11.974;2023-03-20T03:19:54;96969.22;;;12.87;55.53
61324;BME280;47203;48.428;11.974;2023-03-20T03:22:04;96968.50;;;12.77;55.30
61324;BME280;47203;48.428;11.974;2023-03-20T03:24:27;96977.72;;;12.79;55.43
61324;BME280;47203;48.428;11.974;2023-03-20T03:26:43;96970.31;;;12.81;55.61
61324;BME280;47203;48.428;11.974;2023-03-20T03:28:51;96970.31;;;12.81;55.44
61324;BME280;47203;48.428;11.974;2023-03-20T03:30:59;96973.72;;;12.82;55.76
61324;BME280;47203;48.428;11.974;2023-03-20T03:33:18;96970.59;;;12.80;55.84
61324;BME280;47203;48.428;11.974;2023-03-20T03:35:24;96976.91;;;12.84;55.50
61324;BME280;47203;48.428;11.974;2023-03-20T03:37:38;96977.19;;;12.82;55.47
61324;BME280;47203;48.428;11.974;2023-03-20T03:39:49;96974.53;;;12.82;55.50
61324;BME280;47203;48.428;11.974;2023-03-20T03:42:02;96982.47;;;12.82;55.80
61324;BME280;47203;48.428;11.974;2023-03-20T03:44:12;96984.03;;;12.83;55.62
61324;BME280;47203;48.428;11.974;2023-03-20T03:46:24;96982.47;;;12.82;55.67
61324;BME280;47203;48.428;11.974;2023-03-20T03:48:34;96982.47;;;12.82;55.55
61324;BME280;47203;48.428;11.974;2023-03-20T03:50:44;96985.88;;;12.83;55.82
61324;BME280;47203;48.428;11.974;2023-03-20T03:52:51;96982.47;;;12.82;55.79
61324;BME280;47203;48.428;11.974;2023-03-20T03:55:04;96984.56;;;12.80;55.73
61324;BME280;47203;48.428;11.974;2023-03-20T03:57:51;96986.16;;;12.76;55.66
61324;BME280;47203;48.428;11.974;2023-03-20T04:00:02;96991.22;;;12.78;55.50
61324;BME280;47203;48.428;11.974;2023-03-20T04:02:15;96993.84;;;12.78;55.52
61324;BME280;47203;48.428;11.974;2023-03-20T04:04:23;96995.69;;;12.77;55.77
61324;BME280;47203;48.428;11.974;2023-03-20T04:06:29;96998.84;;;12.79;55.72
61324;BME280;47203;48.428;11.974;2023-03-20T04:08:34;96997.28;;;12.78;55.53
61324;BME280;47203;48.428;11.974;2023-03-20T04:10:42;96998.31;;;12.77;55.61
61324;BME280;47203;48.428;11.974;2023-03-20T04:12:47;97007.84;;;12.78;55.75
61324;BME280;47203;48.428;11.974;2023-03-20T04:14:52;97003.34;;;12.79;55.79
61324;BME280;47203;48.428;11.974;2023-03-20T04:16:58;97004.41;;;12.78;55.94
61324;BME280;47203;48.428;11.974;2023-03-20T04:19:05;97008.09;;;12.77;55.91
61324;BME280;47203;48.428;11.974;2023-03-20T04:21:11;97003.34;;;12.79;55.68
61324;BME280;47203;48.428;11.974;2023-03-20T04:23:17;97012.84;;;12.80;56.06
61324;BME280;47203;48.428;11.974;2023-03-20T04:25:24;97008.34;;;12.80;55.78
61324;BME280;47203;48.428;11.974;2023-03-20T04:27:33;97014.44;;;12.81;55.87
61324;BME280;47203;48.428;11.974;2023-03-20T04:29:45;97028.41;;;12.81;56.05
61324;BME280;47203;48.428;11.974;2023-03-20T04:32:11;97026.06;;;12.80;55.79
61324;BME280;47203;48.428;11.974;2023-03-20T04:34:31;97028.19;;;12.78;56.00
61324;BME280;47203;48.428;11.974;2023-03-20T04:36:42;97021.03;;;12.78;56.07
61324;BME280;47203;48.428;11.974;2023-03-20T04:38:49;97026.06;;;12.80;56.15
61324;BME280;47203;48.428;11.974;2023-03-20T04:40:58;97025.78;;;12.81;55.92
61324;BME280;47203;48.428;11.974;2023-03-20T04:43:06;97032.91;;;12.81;55.85
61324;BME280;47203;48.428;11.974;2023-03-20T04:45:11;97028.16;;;12.83;56.01
61324;BME280;47203;48.428;11.974;2023-03-20T04:47:17;97025.50;;;12.83;55.70
61324;BME280;47203;48.428;11.974;2023-03-20T04:49:22;97021.81;;;12.84;55.98
61324;BME280;47203;48.428;11.974;2023-03-20T04:51:28;97022.59;;;12.84;55.97
61324;BME280;47203;48.428;11.974;2023-03-20T04:53:33;97027.09;;;12.84;55.98
61324;BME280;47203;48.428;11.974;2023-03-20T04:55:38;97014.66;;;12.84;56.06
61324;BME280;47203;48.428;11.974;2023-03-20T04:57:44;97027.38;;;12.82;56.05
61324;BME280;47203;48.428;11.974;2023-03-20T04:59:52;97029.47;;;12.80;56.00
61324;BME280;47203;48.428;11.974;2023-03-20T05:01:57;97034.75;;;12.80;55.87
61324;BME280;47203;48.428;11.974;2023-03-20T05:04:02;97041.13;;;12.79;56.19
61324;BME280;47203;48.428;11.974;2023-03-20T05:06:08;97039.53;;;12.78;55.82
61324;BME280;47203;48.428;11.974;2023-03-20T05:08:16;97041.41;;;12.78;56.00
61324;BME280;47203;48.428;11.974;2023-03-20T05:10:21;97042.16;;;12.78;56.24
61324;BME280;47203;48.428;11.974;2023-03-20T05:12:31;97047.44;;;12.78;56.22
61324;BME280;47203;48.428;11.974;2023-03-20T05:14:59;97044.81;;;12.78;56.16
61324;BME280;47203;48.428;11.974;2023-03-20T05:17:23;97049.31;;;12.78;56.25
61324;BME280;47203;48.428;11.974;2023-03-20T05:19:46;97048.22;;;12.79;55.96
61324;BME280;47203;48.428;11.974;2023-03-20T05:22:11;97047.97;;;12.80;56.20
61324;BME280;47203;48.428;11.974;2023-03-20T05:24:43;97050.59;;;12.80;56.21
61324;BME280;47203;48.428;11.974;2023-03-20T05:27:06;97042.69;;;12.80;56.15
61324;BME280;47203;48.428;11.974;2023-03-20T05:29:23;97049.81;;;12.80;56.11
61324;BME280;47203;48.428;11.974;2023-03-20T05:31:54;97052.75;;;12.78;55.90
61324;BME280;47203;48.428;11.974;2023-03-20T05:34:14;97055.38;;;12.78;56.00
61324;BME280;47203;48.428;11.974;2023-03-20T05:36:33;97056.69;;;12.75;55.79
61324;BME280;47203;48.428;11.974;2023-03-20T05:39:08;97061.75;;;12.72;55.92
61324;BME280;47203;48.428;11.974;2023-03-20T05:41:38;97051.97;;;12.67;55.95
61324;BME280;47203;48.428;11.974;2023-03-20T05:43:49;97059.09;;;12.67;55.91
61324;BME280;47203;48.428;11.974;2023-03-20T05:46:12;97067.56;;;12.64;56.08
61324;BME280;47203;48.428;11.974;2023-03-20T05:48:50;97071.53;;;12.61;56.08
61324;BME280;47203;48.428;11.974;2023-03-20T05:51:06;97064.16;;;12.63;56.38
61324;BME280;47203;48.428;11.974;2023-03-20T05:53:34;97070.72;;;12.66;56.46
61324;BME280;47203;48.428;11.974;2023-03-20T05:56:06;97071.25;;;12.68;56.33
61324;BME280;47203;48.428;11.974;2023-03-20T05:58:11;97072.84;;;12.69;56.21
61324;BME280;47203;48.428;11.974;2023-03-20T06:00:37;97077.06;;;12.70;56.24
61324;BME280;47203;48.428;11.974;2023-03-20T06:03:14;97076.28;;;12.69;56.15
61324;BME280;47203;48.428;11.974;2023-03-20T06:05:36;97086.06;;;12.69;56.11
61324;BME280;47203;48.428;11.974;2023-03-20T06:07:42;97078.63;;;12.71;56.20
61324;BME280;47203;48.428;11.974;2023-03-20T06:09:49;97084.97;;;12.70;56.28
61324;BME280;47203;48.428;11.974;2023-03-20T06:11:54;97091.06;;;12.70;56.21
61324;BME280;47203;48.428;11.974;2023-03-20T06:14:00;97091.84;;;12.71;56.31
61324;BME280;47203;48.428;11.974;2023-03-20T06:16:11;97090.25;;;12.70;56.44
61324;BME280;47203;48.428;11.974;2023-03-20T06:18:17;97097.13;;;12.71;56.52
61324;BME280;47203;48.428;11.974;2023-03-20T06:20:23;97092.13;;;12.69;56.51
61324;BME280;47203;48.428;11.974;2023-03-20T06:22:30;97093.16;;;12.68;56.56
61324;BME280;47203;48.428;11.974;2023-03-20T06:24:36;97095.81;;;12.68;56.35
61324;BME280;47203;48.428;11.974;2023-03-20T06:26:44;97095.81;;;12.68;56.70
61324;BME280;47203;48.428;11.974;2023-03-20T06:28:49;97099.25;;;12.69;56.52
61324;BME280;47203;48.428;11.974;2023-03-20T06:30:54;97104.53;;;12.69;56.65
61324;BME280;47203;48.428;11.974;2023-03-20T06:32:59;97105.06;;;12.71;56.49
61324;BME280;47203;48.428;11.974;2023-03-20T06:35:16;97112.19;;;12.70;56.38
61324;BME280;47203;48.428;11.974;2023-03-20T06:37:23;97111.38;;;12.70;56.33
61324;BME280;47203;48.428;11.974;2023-03-20T06:39:38;97111.66;;;12.68;56.61
61324;BME280;47203;48.428;11.974;2023-03-20T06:41:46;97115.34;;;12.67;56.62
61324;BME280;47203;48.428;11.974;2023-03-20T06:43:56;97115.34;;;12.67;56.55
61324;BME280;47203;48.428;11.974;2023-03-20T06:46:13;97118.78;;;12.68;56.67
61324;BME280;47203;48.428;11.974;2023-03-20T06:48:18;97121.16;;;12.69;56.67
61324;BME280;47203;48.428;11.974;2023-03-20T06:50:24;97119.31;;;12.70;56.69
61324;BME280;47203;48.428;11.974;2023-03-20T06:52:30;97118.53;;;12.69;56.46
61324;BME280;47203;48.428;11.974;2023-03-20T06:55:03;97116.41;;;12.66;56.56
61324;BME280;47203;48.428;11.974;2023-03-20T06:57:09;97122.22;;;12.68;56.57
61324;BME280;47203;48.428;11.974;2023-03-20T06:59:17;97117.19;;;12.67;56.57
61324;BME280;47203;48.428;11.974;2023-03-20T07:01:23;97116.41;;;12.66;56.56
61324;BME280;47203;48.428;11.974;2023-03-20T07:03:28;97118.78;;;12.68;56.42
61324;BME280;47203;48.428;11.974;2023-03-20T07:05:33;97119.31;;;12.70;56.58
61324;BME280;47203;48.428;11.974;2023-03-20T07:07:42;97122.50;;;12.72;56.42
61324;BME280;47203;48.428;11.974;2023-03-20T07:09:46;97118.78;;;12.73;56.56
61324;BME280;47203;48.428;11.974;2023-03-20T07:11:54;97119.56;;;12.73;56.57
61324;BME280;47203;48.428;11.974;2023-03-20T07:14:00;97119.31;;;12.75;56.82
61324;BME280;47203;48.428;11.974;2023-03-20T07:16:16;97119.03;;;12.77;56.86
61324;BME280;47203;48.428;11.974;2023-03-20T07:18:22;97120.63;;;12.78;56.61
61324;BME280;47203;48.428;11.974;2023-03-20T07:20:27;97124.84;;;12.79;56.68
61324;BME280;47203;48.428;11.974;2023-03-20T07:22:33;97119.81;;;12.77;56.82
61324;BME280;47203;48.428;11.974;2023-03-20T07:24:51;97128.28;;;12.79;56.63
61324;BME280;47203;48.428;11.974;2023-03-20T07:27:01;97125.38;;;12.81;56.90
61324;BME280;47203;48.428;11.974;2023-03-20T07:29:08;97125.63;;;12.84;56.99
61324;BME280;47203;48.428;11.974;2023-03-20T07:31:18;97135.41;;;12.84;56.95
61324;BME280;47203;48.428;11.974;2023-03-20T07:33:29;97130.91;;;12.84;57.07
61324;BME280;47203;48.428;11.974;2023-03-20T07:35:35;97144.38;;;12.88;56.79
61324;BME280;47203;48.428;11.974;2023-03-20T07:37:41;97138.28;;;12.87;57.06
61324;BME280;47203;48.428;11.974;2023-03-20T07:39:46;97144.88;;;12.85;56.68
61324;BME280;47203;48.428;11.974;2023-03-20T07:42:09;97151.25;;;12.84;56.83
61324;BME280;47203;48.428;11.974;2023-03-20T07:44:25;97155.19;;;12.86;56.79
61324;BME280;47203;48.428;11.974;2023-03-20T07:46:30;97156.78;;;12.87;56.71
61324;BME280;47203;48.428;11.974;2023-03-20T07:48:35;97155.47;;;12.90;56.78
61324;BME280;47203;48.428;11.974;2023-03-20T07:50:40;97159.16;;;12.89;56.81
61324;BME280;47203;48.428;11.974;2023-03-20T07:52:46;97161.53;;;12.90;56.67
61324;BME280;47203;48.428;11.974;2023-03-20T07:54:54;97157.31;;;12.89;56.74
61324;BME280;47203;48.428;11.974;2023-03-20T07:56:59;97156.78;;;12.92;56.75
61324;BME280;47203;48.428;11.974;2023-03-20T07:59:09;97164.94;;;12.96;56.70
61324;BME280;47203;48.428;11.974;2023-03-20T08:01:14;97159.66;;;13.01;56.92
61324;BME280;47203;48.428;11.974;2023-03-20T08:03:19;97168.66;;;13.05;56.45
61324;BME280;47203;48.428;11.974;2023-03-20T08:05:24;97165.47;;;13.08;56.77
61324;BME280;47203;48.428;11.974;2023-03-20T08:07:29;97160.69;;;13.10;56.63
61324;BME280;47203;48.428;11.974;2023-03-20T08:09:34;97161.47;;;13.11;56.31
61324;BME280;47203;48.428;11.974;2023-03-20T08:11:39;97161.72;;;13.15;56.26
61324;BME280;47203;48.428;11.974;2023-03-20T08:13:45;97167.00;;;13.20;56.62
61324;BME280;47203;48.428;11.974;2023-03-20T08:15:53;97163.28;;;13.21;56.18
61324;BME280;47203;48.428;11.974;2023-03-20T08:17:58;97163.56;;;13.24;56.25
61324;BME280;47203;48.428;11.974;2023-03-20T08:20:03;97167.50;;;13.27;56.49
61324;BME280;47203;48.428;11.974;2023-03-20T08:22:09;97165.38;;;13.29;56.11
61324;BME280;47203;48.428;11.974;2023-03-20T08:24:14;97160.34;;;13.33;56.11
61324;BME280;47203;48.428;11.974;2023-03-20T08:26:19;97168.84;;;13.35;55.86
61324;BME280;47203;48.428;11.974;2023-03-20T08:28:25;97168.56;;;13.36;56.34
61324;BME280;47203;48.428;11.974;2023-03-20T08:30:48;97163.25;;;13.41;55.96
61324;BME280;47203;48.428;11.974;2023-03-20T08:32:56;97167.44;;;13.48;56.12
61324;BME280;47203;48.428;11.974;2023-03-20T08:35:02;97152.63;;;13.52;56.15
61324;BME280;47203;48.428;11.974;2023-03-20T08:37:07;97159.44;;;13.58;55.85
61324;BME280;47203;48.428;11.974;2023-03-20T08:39:13;97157.84;;;13.62;56.02
61324;BME280;47203;48.428;11.974;2023-03-20T08:41:17;97157.84;;;13.67;55.91
61324;BME280;47203;48.428;11.974;2023-03-20T08:43:22;97148.56;;;13.70;55.56
61324;BME280;47203;48.428;11.974;2023-03-20T08:45:28;97151.94;;;13.75;55.62
61324;BME280;47203;48.428;11.974;2023-03-20T08:47:33;97148.50;;;13.80;55.71
61324;BME280;47203;48.428;11.974;2023-03-20T08:49:43;97141.34;;;13.86;55.50
61324;BME280;47203;48.428;11.974;2023-03-20T08:51:49;97149.94;;;14.02;55.18
61324;BME280;47203;48.428;11.974;2023-03-20T08:53:54;97136.28;;;14.24;55.47
61324;BME280;47203;48.428;11.974;2023-03-20T08:55:59;97134.72;;;14.52;55.36
61324;BME280;47203;48.428;11.974;2023-03-20T08:58:04;97140.81;;;14.82;54.95
61324;BME280;47203;48.428;11.974;2023-03-20T09:00:12;97141.59;;;15.07;54.73
61324;BME280;47203;48.428;11.974;2023-03-20T09:02:19;97137.38;;;15.30;54.39
61324;BME280;47203;48.428;11.974;2023-03-20T09:04:25;97148.53;;;15.51;53.98
61324;BME280;47203;48.428;11.974;2023-03-20T09:06:35;97145.66;;;15.66;53.67
61324;BME280;47203;48.428;11.974;2023-03-20T09:08:39;97145.78;;;15.80;53.07
61324;BME280;47203;48.428;11.974;2023-03-20T09:10:46;97145.69;;;15.85;52.94
61324;BME280;47203;48.428;11.974;2023-03-20T09:12:54;97144.56;;;15.92;53.16
61324;BME280;47203;48.428;11.974;2023-03-20T09:14:59;97144.13;;;16.03;53.21
61324;BME280;47203;48.428;11.974;2023-03-20T09:17:03;97153.72;;;16.18;52.83
61324;BME280;47203;48.428;11.974;2023-03-20T09:19:08;97149.53;;;16.31;52.44
61324;BME280;47203;48.428;11.974;2023-03-20T09:21:13;97148.00;;;16.44;52.54
61324;BME280;47203;48.428;11.974;2023-03-20T09:23:20;97147.81;;;16.54;52.38
61324;BME280;47203;48.428;11.974;2023-03-20T09:25:25;97153.25;;;16.63;52.12
61324;BME280;47203;48.428;11.974;2023-03-20T09:27:30;97145.53;;;16.62;51.91
61324;BME280;47203;48.428;11.974;2023-03-20T09:29:35;97154.41;;;16.57;51.65
61324;BME280;47203;48.428;11.974;2023-03-20T09:31:40;97147.81;;;16.54;51.44
61324;BME280;47203;48.428;11.974;2023-03-20T09:33:45;97146.53;;;16.52;51.65
61324;BME280;47203;48.428;11.974;2023-03-20T09:35:50;97144.16;;;16.50;51.72
61324;BME280;47203;48.428;11.974;2023-03-20T09:37:55;97159.13;;;16.60;51.58
61324;BME280;47203;48.428;11.974;2023-03-20T09:40:03;97150.00;;;16.66;51.65
61324;BME280;47203;48.428;11.974;2023-03-20T09:42:20;97153.16;;;16.68;51.17
61324;BME280;47203;48.428;11.974;2023-03-20T09:44:37;97163.19;;;16.71;51.07
61324;BME280;47203;48.428;11.974;2023-03-20T09:46:59;97163.19;;;16.71;50.85
61324;BME280;47203;48.428;11.974;2023-03-20T09:49:29;97156.38;;;16.65;51.28
61324;BME280;47203;48.428;11.974;2023-03-20T09:51:40;97156.97;;;16.62;51.85
61324;BME280;47203;48.428;11.974;2023-03-20T09:53:52;97156.28;;;16.56;51.66
61324;BME280;47203;48.428;11.974;2023-03-20T09:56:07;97153.69;;;16.51;51.65
61324;BME280;47203;48.428;11.974;2023-03-20T09:58:20;97141.09;;;16.43;51.83
61324;BME280;47203;48.428;11.974;2023-03-20T10:00:28;97146.47;;;16.38;51.91
61324;BME280;47203;48.428;11.974;2023-03-20T10:02:41;97150.09;;;16.28;51.71
61324;BME280;47203;48.428;11.974;2023-03-20T10:04:48;97146.75;;;16.22;52.30
61324;BME280;47203;48.428;11.974;2023-03-20T10:06:55;97138.06;;;16.17;52.11
61324;BME280;47203;48.428;11.974;2023-03-20T10:09:01;97141.59;;;16.12;51.79
61324;BME280;47203;48.428;11.974;2023-03-20T10:11:33;97135.63;;;16.01;51.60
61324;BME280;47203;48.428;11.974;2023-03-20T10:13:51;97137.94;;;15.89;51.77
61324;BME280;47203;48.428;11.974;2023-03-20T10:16:03;97131.19;;;15.78;52.32
61324;BME280;47203;48.428;11.974;2023-03-20T10:18:16;97140.56;;;15.70;52.31
61324;BME280;47203;48.428;11.974;2023-03-20T10:20:25;97133.25;;;15.62;52.37
61324;BME280;47203;48.428;11.974;2023-03-20T10:22:34;97138.63;;;15.57;51.86
61324;BME280;47203;48.428;11.974;2023-03-20T10:24:43;97134.44;;;15.50;52.26
61324;BME280;47203;48.428;11.974;2023-03-20T10:26:55;97137.97;;;15.46;52.79
61324;BME280;47203;48.428;11.974;2023-03-20T10:29:05;97132.47;;;15.42;52.76
61324;BME280;47203;48.428;11.974;2023-03-20T10:31:28;97133.03;;;15.39;52.48
61324;BME280;47203;48.428;11.974;2023-03-20T10:33:47;97128.25;;;15.36;52.00
61324;BME280;47203;48.428;11.974;2023-03-20T10:36:06;97133.38;;;15.32;51.92
61324;BME280;47203;48.428;11.974;2023-03-20T10:38:22;97140.03;;;15.30;51.86
61324;BME280;47203;48.428;11.974;2023-03-20T10:40:31;97128.63;;;15.29;52.11
61324;BME280;47203;48.428;11.974;2023-03-20T10:42:44;97128.09;;;15.27;52.43
61324;BME280;47203;48.428;11.974;2023-03-20T10:44:55;97125.75;;;15.26;52.09
61324;BME280;47203;48.428;11.974;2023-03-20T10:47:05;97127.91;;;15.24;52.18
61324;BME280;47203;48.428;11.974;2023-03-20T10:49:15;97121.28;;;15.21;52.26
61324;BME280;47203;48.428;11.974;2023-03-20T10:51:30;97119.22;;;15.18;52.40
61324;BME280;47203;48.428;11.974;2023-03-20T10:53:43;97114.47;;;15.15;51.97
61324;BME280;47203;48.428;11.974;2023-03-20T10:55:53;97114.00;;;15.13;51.96
61324;BME280;47203;48.428;11.974;2023-03-20T10:58:10;97106.03;;;15.13;52.08
61324;BME280;47203;48.428;11.974;2023-03-20T11:00:20;97110.25;;;15.14;52.82
61324;BME280;47203;48.428;11.974;2023-03-20T11:02:28;97107.53;;;15.19;52.84
61324;BME280;47203;48.428;11.974;2023-03-20T11:04:34;97108.75;;;15.27;52.48
61324;BME280;47203;48.428;11.974;2023-03-20T11:06:45;97102.31;;;15.33;52.22
61324;BME280;47203;48.428;11.974;2023-03-20T11:08:52;97101.97;;;15.40;52.15
61324;BME280;47203;48.428;11.974;2023-03-20T11:11:00;97094.50;;;15.42;51.91
61324;BME280;47203;48.428;11.974;2023-03-20T11:13:22;97095.31;;;15.42;51.98
61324;BME280;47203;48.428;11.974;2023-03-20T11:15:32;97105.06;;;15.47;51.74
61324;BME280;47203;48.428;11.974;2023-03-20T11:17:39;97101.56;;;15.51;52.02
61324;BME280;47203;48.428;11.974;2023-03-20T11:19:44;97100.63;;;15.61;51.90
61324;BME280;47203;48.428;11.974;2023-03-20T11:21:51;97090.94;;;15.70;52.51
61324;BME280;47203;48.428;11.974;2023-03-20T11:23:57;97092.16;;;15.78;52.89
61324;BME280;47203;48.428;11.974;2023-03-20T11:26:06;97097.41;;;15.83;51.82
61324;BME280;47203;48.428;11.974;2023-03-20T11:28:25;97096.34;;;15.84;51.91
61324;BME280;47203;48.428;11.974;2023-03-20T11:30:38;97102.72;;;15.83;51.82
61324;BME280;47203;48.428;11.974;2023-03-20T11:33:04;97100.84;;;15.84;51.58
61324;BME280;47203;48.428;11.974;2023-03-20T11:35:17;97112.28;;;15.84;51.44